Terminal Aerodrome Forecast
Issued by NWS Albany, NY

Home | Current Version | Previous Version | Text Only | Print | Product List | Glossary On
Versions: 1 2 3 4 5 6 7 8 9 10 11 12 13 14 15 16 17 18 19 20 21 22 23
918
FTUS41 KALY 301132
TAFPOU
TAF
KPOU 301132Z 3012/0112 03010G19KT P6SM BKN120
     FM301300 04010KT 4SM -RA BR SCT015 BKN025
     FM301800 05008KT 2SM -RA BR OVC015
     FM010000 04009KT 4SM -RA BR OVC007=

USA.gov is the U.S. government's official web portal to all federal, state and local government web resources and services.